Time;durP1;ratioP1;P1;durP2;ratioP2;P2;SDS_P1;SDS_P2;PMS_P1;PMS_P2;Temp;Humidity;BMP_temperature;BMP_pressure;BME280_temperature;BME280_humidity;BME280_pressure;Samples;Min_cycle;Max_cycle;Signal;HPM_P1;HPM_P2
2023/05/12 00:02:25;;;;;;;0.80;0.60;;;;;;;17.96;57.16;96333.78;10396417;28;20108;-26
2023/05/12 00:07:25;;;;;;;0.52;0.40;;;;;;;17.95;57.24;96327.03;10395296;28;20060;-26
2023/05/12 00:12:26;;;;;;;0.60;0.47;;;;;;;17.93;57.08;96323.69;10395630;28;20033;-26
2023/05/12 00:17:26;;;;;;;0.95;0.75;;;;;;;18.10;61.69;96324.44;10401748;28;20280;-26
2023/05/12 00:22:27;;;;;;;0.93;0.90;;;;;;;18.16;63.25;96332.84;10403165;28;20029;-26
2023/05/12 00:27:29;;;;;;;0.80;0.70;;;;;;;18.16;61.06;96324.44;10411743;28;20040;-26
2023/05/12 00:32:29;;;;;;;1.85;0.98;;;;;;;18.06;59.50;96320.22;10400384;28;20358;-26
2023/05/12 00:37:30;;;;;;;0.50;0.50;;;;;;;18.00;57.79;96313.50;10402430;28;20138;-26
2023/05/12 00:42:33;;;;;;;1.75;0.45;;;;;;;17.97;57.59;96310.16;10377102;28;20404;-26
2023/05/12 00:47:34;;;;;;;0.77;0.50;;;;;;;17.94;57.31;96300.03;10377980;28;20053;-26
2023/05/12 00:52:35;;;;;;;0.63;0.57;;;;;;;17.93;57.29;96304.25;10408624;28;20493;-26
2023/05/12 00:57:36;;;;;;;0.65;0.60;;;;;;;17.93;57.19;96294.13;10367668;28;20489;-26
2023/05/12 01:02:38;;;;;;;0.40;0.40;;;;;;;17.93;56.78;96295.81;10388045;28;20106;-26
2023/05/12 01:07:39;;;;;;;0.73;0.50;;;;;;;17.92;57.01;96294.16;10387300;28;20069;-26
2023/05/12 01:12:40;;;;;;;0.85;0.45;;;;;;;17.91;57.52;96300.06;10400477;28;20037;-26
2023/05/12 01:17:46;;;;;;;0.60;0.40;;;;;;;17.91;56.87;96300.88;10401082;28;20112;-26
2023/05/12 01:22:48;;;;;;;1.40;0.98;;;;;;;18.09;61.92;96307.56;10408493;28;20036;-26
2023/05/12 01:27:49;;;;;;;1.15;0.88;;;;;;;18.14;62.64;96301.63;10375373;28;20041;-26
2023/05/12 01:32:50;;;;;;;1.42;0.57;;;;;;;18.12;60.67;96302.47;10374566;28;20437;-27
2023/05/12 01:37:51;;;;;;;1.08;0.70;;;;;;;18.03;58.83;96300.00;10375589;28;20034;-26
2023/05/12 01:42:51;;;;;;;1.10;0.70;;;;;;;17.98;57.90;96296.66;10400449;28;20110;-26
2023/05/12 01:47:52;;;;;;;0.52;0.47;;;;;;;17.95;57.24;96299.19;10374587;28;20030;-26
2023/05/12 01:52:52;;;;;;;1.27;0.60;;;;;;;17.94;57.31;96300.03;10368347;28;20037;-26
2023/05/12 01:57:53;;;;;;;0.65;0.50;;;;;;;17.93;56.92;96303.44;10374409;28;20330;-26
2023/05/12 02:02:54;;;;;;;0.50;0.40;;;;;;;17.91;57.13;96305.97;10379274;28;20065;-26
2023/05/12 02:07:55;;;;;;;0.65;0.47;;;;;;;17.91;57.24;96300.06;10391268;28;20037;-26
2023/05/12 02:12:56;;;;;;;0.40;0.40;;;;;;;17.90;56.89;96298.38;10405321;28;20033;-26
2023/05/12 02:17:57;;;;;;;0.60;0.60;;;;;;;17.90;57.08;96293.31;10400841;28;20091;-26
2023/05/12 02:22:58;;;;;;;0.73;0.60;;;;;;;17.94;59.66;96289.91;10381184;28;20029;-26
2023/05/12 02:27:59;;;;;;;1.13;1.02;;;;;;;18.09;62.74;96299.97;10400164;28;20064;-26
2023/05/12 02:32:59;;;;;;;1.35;0.90;;;;;;;18.11;62.24;96288.13;10382091;28;20037;-26
2023/05/12 02:37:59;;;;;;;0.87;0.53;;;;;;;18.07;60.51;96291.53;10377411;28;20103;-26
2023/05/12 02:43:00;;;;;;;0.60;0.50;;;;;;;17.97;59.04;96295.81;10382621;28;20040;-25
2023/05/12 02:48:00;;;;;;;0.65;0.50;;;;;;;17.94;57.54;96300.91;10380263;28;20670;-26
2023/05/12 02:53:01;;;;;;;0.50;0.43;;;;;;;17.92;57.28;96296.69;10383448;28;20452;-26
2023/05/12 02:58:01;;;;;;;0.67;0.57;;;;;;;17.84;57.10;96284.03;10380578;28;20822;-26
2023/05/12 03:03:02;;;;;;;0.57;0.47;;;;;;;17.90;56.98;96289.06;10373194;28;20490;-26
2023/05/12 03:08:02;;;;;;;0.52;0.30;;;;;;;17.89;57.05;96296.69;10394667;28;20042;-26
2023/05/12 03:13:03;;;;;;;0.45;0.40;;;;;;;17.84;56.84;96284.03;10381234;28;20512;-26
2023/05/12 03:18:03;;;;;;;0.60;0.40;;;;;;;17.88;56.89;96292.47;10379062;28;20485;-26
2023/05/12 03:23:04;;;;;;;0.57;0.40;;;;;;;17.87;56.88;96285.72;10382786;28;20115;-26
2023/05/12 03:28:04;;;;;;;0.90;0.70;;;;;;;17.98;59.01;96294.13;10385884;28;20088;-26
2023/05/12 03:33:05;;;;;;;0.63;0.63;;;;;;;18.06;62.87;96290.69;10399427;28;20048;-25
2023/05/12 03:38:06;;;;;;;0.80;0.75;;;;;;;18.08;61.22;96278.03;10393544;28;20048;-25
2023/05/12 03:43:06;;;;;;;0.53;0.50;;;;;;;18.03;60.13;96289.84;10402842;28;20030;-26
2023/05/12 03:48:07;;;;;;;0.70;0.70;;;;;;;17.97;58.86;96279.75;10411343;28;20272;-26
2023/05/12 03:53:10;;;;;;;0.80;0.60;;;;;;;17.92;57.80;96286.56;10382614;28;20041;-26
2023/05/12 03:58:12;;;;;;;0.32;0.32;;;;;;;17.90;57.17;96281.47;10395482;28;20110;-26
2023/05/12 04:03:12;;;;;;;0.38;0.38;;;;;;;17.88;57.12;96274.72;10379519;28;20018;-26
2023/05/12 04:08:13;;;;;;;0.73;0.30;;;;;;;17.88;57.08;96277.25;10393448;28;20034;-26
2023/05/12 04:13:14;;;;;;;1.77;0.30;;;;;;;17.89;57.59;96278.94;10378759;28;20041;-26
2023/05/12 04:18:15;;;;;;;1.73;0.50;;;;;;;17.87;56.79;96273.06;10395095;28;20296;-26
2023/05/12 04:23:16;;;;;;;0.40;0.38;;;;;;;17.86;56.47;96277.28;10374395;28;20061;-26
2023/05/12 04:28:16;;;;;;;0.40;0.40;;;;;;;17.87;56.79;96273.06;10387387;28;20152;-26
2023/05/12 04:33:16;;;;;;;2.07;1.10;;;;;;;17.96;60.73;96276.41;10391237;28;20036;-26
2023/05/12 04:38:17;;;;;;;32.67;2.15;;;;;;;18.08;61.38;96280.56;10392464;28;20284;-26
2023/05/12 04:43:20;;;;;;;2.28;1.45;;;;;;;18.08;60.23;96290.69;10391977;28;20404;-27
2023/05/12 04:48:21;;;;;;;6.57;1.35;;;;;;;17.97;59.85;96289.88;10391697;28;20041;-26
2023/05/12 04:53:21;;;;;;;4.00;1.45;;;;;;;17.94;59.11;96300.91;10405961;28;20029;-26
2023/05/12 04:58:22;;;;;;;4.38;1.50;;;;;;;17.94;58.66;96297.50;10387549;28;20099;-26
2023/05/12 05:03:22;;;;;;;4.55;2.13;;;;;;;17.93;58.11;96303.44;10386161;28;20026;-26
2023/05/12 05:08:23;;;;;;;8.37;1.10;;;;;;;17.90;57.80;96303.44;10369789;28;20041;-26
2023/05/12 05:13:24;;;;;;;3.85;0.95;;;;;;;17.89;57.92;96307.66;10387416;28;20799;-26
2023/05/12 05:18:25;;;;;;;3.50;0.95;;;;;;;17.89;57.49;96309.34;10392244;28;20493;-26
2023/05/12 05:23:27;;;;;;;2.20;0.70;;;;;;;17.88;57.38;96313.56;10391996;28;20409;-27
2023/05/12 05:28:29;;;;;;;1.40;0.80;;;;;;;17.89;57.91;96311.88;10390646;28;20037;-26
2023/05/12 05:33:30;;;;;;;6.60;1.50;;;;;;;17.88;60.23;96302.59;10366436;28;20059;-26
2023/05/12 05:38:31;;;;;;;5.15;1.80;;;;;;;17.82;59.93;96310.25;10379126;28;20029;-26
2023/05/12 05:43:31;;;;;;;5.60;2.20;;;;;;;17.95;61.80;96311.84;10364285;28;20520;-26
2023/05/12 05:48:32;;;;;;;3.15;1.50;;;;;;;18.00;61.32;96312.69;10378128;28;20040;-27
2023/05/12 05:53:32;;;;;;;5.07;1.17;;;;;;;17.97;60.04;96312.69;10408625;28;20071;-26
2023/05/12 05:58:33;;;;;;;1.88;0.90;;;;;;;17.93;58.71;96311.84;10385842;28;20395;-26
2023/05/12 06:03:36;;;;;;;3.45;1.65;;;;;;;17.91;58.18;96312.72;10386578;28;20032;-26
2023/05/12 06:08:36;;;;;;;3.60;0.90;;;;;;;17.90;58.06;96311.03;10390548;28;20035;-26
2023/05/12 06:13:36;;;;;;;2.70;0.90;;;;;;;17.88;57.94;96310.19;10399562;28;20683;-26
2023/05/12 06:18:37;;;;;;;3.97;1.00;;;;;;;17.83;57.93;96307.69;10381378;28;20520;-26
2023/05/12 06:23:37;;;;;;;4.22;1.15;;;;;;;17.86;57.55;96322.03;10382488;28;20030;-26
2023/05/12 06:28:38;;;;;;;1.30;1.20;;;;;;;17.85;57.88;96316.13;10389363;28;20062;-26
2023/05/12 06:33:38;;;;;;;3.07;1.27;;;;;;;17.85;57.95;96326.25;10381029;28;20042;-26
2023/05/12 06:38:39;;;;;;;3.30;1.20;;;;;;;17.85;57.79;96333.00;10360775;28;20567;-27
2023/05/12 06:43:39;;;;;;;4.67;2.13;;;;;;;18.00;62.44;96328.72;10402961;28;20026;-26
2023/05/12 06:48:40;;;;;;;3.23;1.20;;;;;;;18.05;62.49;96328.69;10398499;28;20770;-26
2023/05/12 06:53:41;;;;;;;1.63;0.95;;;;;;;18.04;60.67;96327.00;10394554;28;20141;-26
2023/05/12 06:58:42;;;;;;;1.08;0.70;;;;;;;17.97;60.32;96326.19;10404347;28;20454;-26
2023/05/12 07:03:42;;;;;;;2.58;0.90;;;;;;;17.94;59.14;96325.38;10405397;28;20029;-26
2023/05/12 07:08:43;;;;;;;2.92;0.70;;;;;;;17.90;58.63;96328.78;10413297;28;20503;-26
2023/05/12 07:13:43;;;;;;;1.17;0.80;;;;;;;17.86;58.26;96316.97;10412036;28;20032;-26
2023/05/12 07:18:44;;;;;;;1.63;0.70;;;;;;;17.87;58.00;96328.75;10403088;28;20520;-26
2023/05/12 07:23:45;;;;;;;1.83;0.90;;;;;;;17.86;58.10;96322.03;10414399;28;20445;-26
2023/05/12 07:28:45;;;;;;;3.70;1.10;;;;;;;17.88;57.88;96320.31;10413617;28;20099;-26
2023/05/12 07:33:46;;;;;;;2.22;1.10;;;;;;;17.86;57.87;96322.03;10413111;28;20041;-26
2023/05/12 07:38:46;;;;;;;1.77;0.90;;;;;;;17.85;57.84;96328.78;10413978;28;20036;-27
2023/05/12 07:43:46;;;;;;;4.70;1.43;;;;;;;17.86;58.68;96327.09;10412814;28;20065;-26
2023/05/12 07:48:47;;;;;;;10.82;2.08;;;;;;;18.00;62.40;96320.28;10412908;28;20037;-26
2023/05/12 07:53:47;;;;;;;2.80;1.43;;;;;;;18.04;61.93;96317.72;10410844;28;20033;-26
2023/05/12 07:58:48;;;;;;;6.43;2.03;;;;;;;17.91;59.22;96316.09;10403214;28;20087;-26
2023/05/12 08:03:50;;;;;;;2.03;0.77;;;;;;;17.82;57.45;96317.84;10411252;28;20119;-26
2023/05/12 08:08:50;;;;;;;2.65;0.55;;;;;;;17.76;57.23;96316.13;10411889;28;20128;-26
2023/05/12 08:13:51;;;;;;;1.67;0.80;;;;;;;17.73;57.22;96315.34;10411624;28;20037;-26
2023/05/12 08:18:51;;;;;;;1.55;0.60;;;;;;;17.69;57.30;96308.59;10408334;28;20033;-26
2023/05/12 08:23:52;;;;;;;1.83;0.60;;;;;;;17.70;57.27;96320.38;10403912;28;20036;-26
2023/05/12 08:28:52;;;;;;;2.70;0.73;;;;;;;17.69;57.13;96324.63;10411670;28;20037;-26
2023/05/12 08:33:52;;;;;;;2.77;0.43;;;;;;;17.69;57.25;96323.78;10410704;28;20524;-26
2023/05/12 08:38:55;;;;;;;1.77;0.80;;;;;;;17.67;57.30;96328.00;10411870;28;20036;-27
2023/05/12 08:43:56;;;;;;;1.48;0.90;;;;;;;17.70;57.92;96331.38;10410868;28;20034;-26
2023/05/12 08:49:00;;;;;;;1.33;0.93;;;;;;;17.76;57.50;96335.56;10402443;28;20374;-26
2023/05/12 08:54:03;;;;;;;6.43;2.13;;;;;;;17.91;62.87;96327.91;10411173;28;20195;-26
2023/05/12 08:59:05;;;;;;;6.45;2.35;;;;;;;17.96;62.11;96329.59;10410384;28;20037;-26
2023/05/12 09:04:05;;;;;;;1.63;0.90;;;;;;;17.90;58.51;96329.59;10410270;28;20040;-26
2023/05/12 09:09:06;;;;;;;2.80;1.80;;;;;;;17.80;58.84;96332.16;10408526;28;20033;-26
2023/05/12 09:14:24;;;;;;;1.13;0.90;;;;;;;17.79;57.40;96331.34;10410252;28;20298;-26
2023/05/12 09:19:24;;;;;;;1.15;0.93;;;;;;;17.80;57.71;96332.16;10390465;28;20513;-26
2023/05/12 09:24:38;;;;;;;6.50;1.13;;;;;;;17.85;57.50;96331.31;10403900;28;20036;-27
2023/05/12 09:29:48;;;;;;;2.88;1.30;;;;;;;17.88;57.31;96330.44;10404491;28;20394;-26
2023/05/12 09:34:50;;;;;;;13.90;2.13;;;;;;;17.86;59.39;96332.16;10399917;28;20040;-25
2023/05/12 09:39:58;;;;;;;8.73;1.70;;;;;;;17.85;58.20;96322.88;10407889;28;20061;-26
2023/05/12 09:45:06;;;;;;;5.25;1.20;;;;;;;17.85;58.03;96330.47;10399381;28;20029;-26
2023/05/12 09:50:07;;;;;;;5.30;1.73;;;;;;;17.84;57.81;96328.78;10408093;28;20032;-26
2023/05/12 09:55:12;;;;;;;5.88;1.55;;;;;;;17.82;58.12;96333.84;10408503;28;20044;-26
2023/05/12 10:00:14;;;;;;;4.53;2.55;;;;;;;17.95;62.65;96327.03;10409121;28;20455;-26
2023/05/12 10:05:19;;;;;;;5.20;2.45;;;;;;;18.01;62.57;96329.56;10407533;28;20025;-26
2023/05/12 10:10:22;;;;;;;2.65;1.42;;;;;;;17.91;58.90;96336.34;10393518;28;20404;-26
2023/05/12 10:15:24;;;;;;;3.10;1.58;;;;;;;17.85;58.60;96331.31;10383195;28;20042;-26
2023/05/12 10:20:26;;;;;;;2.05;1.33;;;;;;;17.82;58.92;96320.38;10400474;28;20035;-28
2023/05/12 10:25:27;;;;;;;4.57;1.88;;;;;;;17.83;58.73;96327.09;10408568;28;20037;-29
2023/05/12 10:30:27;;;;;;;3.47;1.58;;;;;;;17.79;58.70;96325.41;10391339;28;20045;-29
2023/05/12 10:35:35;;;;;;;3.70;1.40;;;;;;;17.76;58.91;96320.38;10406079;28;20461;-28
2023/05/12 10:40:35;;;;;;;4.90;1.75;;;;;;;17.77;58.88;96309.41;10406802;28;20038;-28
2023/05/12 10:45:36;;;;;;;4.00;1.60;;;;;;;17.77;57.79;96307.72;10410558;28;20109;-28
2023/05/12 10:50:36;;;;;;;3.00;1.60;;;;;;;17.77;58.01;96302.66;10400483;28;20044;-29
2023/05/12 10:55:44;;;;;;;3.63;1.60;;;;;;;17.73;57.96;96305.22;10413249;28;20060;-28
2023/05/12 11:00:49;;;;;;;2.17;1.50;;;;;;;17.74;58.33;96296.75;10396961;28;20412;-30
2023/05/12 11:06:03;;;;;;;4.55;2.55;;;;;;;17.90;60.67;96298.38;10391921;28;20162;-31
2023/05/12 11:11:04;;;;;;;6.53;2.58;;;;;;;17.97;64.82;96294.94;10413267;28;20044;-30
2023/05/12 11:16:04;;;;;;;5.97;2.37;;;;;;;17.90;60.23;96294.16;10397432;28;20490;-31
2023/05/12 11:21:10;;;;;;;2.88;2.00;;;;;;;17.81;58.45;96298.41;10409960;28;20292;-31
2023/05/12 11:26:16;;;;;;;3.77;1.83;;;;;;;17.80;58.32;96299.25;10366854;28;1074710;-30
2023/05/12 11:31:21;;;;;;;3.60;2.10;;;;;;;17.77;58.52;96300.13;10400955;28;20076;-30
2023/05/12 11:36:21;;;;;;;18.33;4.00;;;;;;;17.71;59.33;96286.63;10404887;28;20502;-32
2023/05/12 11:41:25;;;;;;;8.03;2.67;;;;;;;17.77;59.14;96290.00;10397141;28;20112;-31
2023/05/12 11:46:28;;;;;;;5.97;2.60;;;;;;;17.76;58.65;96290.00;10395069;28;20280;-30
2023/05/12 11:51:29;;;;;;;3.90;1.75;;;;;;;17.74;58.79;96291.69;10394884;28;20042;-30
2023/05/12 11:56:29;;;;;;;7.80;2.60;;;;;;;17.74;58.35;96291.69;10390130;28;20038;-30
2023/05/12 12:01:30;;;;;;;4.33;2.13;;;;;;;17.72;58.28;96290.84;10400345;28;20035;-31
2023/05/12 12:06:41;;;;;;;5.60;2.05;;;;;;;17.75;58.43;96299.25;10410348;28;20481;-31
2023/05/12 12:11:41;;;;;;;5.90;3.28;;;;;;;17.91;63.22;96300.06;10404224;28;20036;-31
2023/05/12 12:16:41;;;;;;;6.80;3.57;;;;;;;17.97;63.28;96307.63;10403362;28;20037;-31
2023/05/12 12:21:42;;;;;;;6.37;2.40;;;;;;;17.91;59.07;96312.72;10402791;28;20033;-30
2023/05/12 12:26:42;;;;;;;3.33;1.97;;;;;;;17.85;58.04;96312.75;10403550;28;20037;-31
2023/05/12 12:31:43;;;;;;;3.47;1.97;;;;;;;17.81;57.72;96316.13;10403107;28;20040;-32
2023/05/12 12:36:43;;;;;;;6.80;2.03;;;;;;;17.83;57.89;96327.94;10401661;28;20111;-31
2023/05/12 12:41:43;;;;;;;5.83;2.27;;;;;;;17.85;58.67;96330.47;10402306;28;20383;-31
2023/05/12 12:46:44;;;;;;;8.23;2.80;;;;;;;17.85;58.67;96325.41;10401547;28;20292;-30
2023/05/12 12:51:44;;;;;;;4.20;2.15;;;;;;;17.84;57.94;96323.72;10401700;28;20291;-31
2023/05/12 12:56:45;;;;;;;8.02;4.45;;;;;;;17.82;58.15;96323.72;10409602;28;20045;-30
2023/05/12 13:01:45;;;;;;;3.87;2.33;;;;;;;17.79;58.06;96321.22;10410289;28;20075;-31
2023/05/12 13:06:45;;;;;;;5.83;2.90;;;;;;;17.78;58.26;96323.75;10401060;28;20049;-31
2023/05/12 13:11:49;;;;;;;7.47;4.30;;;;;;;17.78;58.04;96323.75;10409482;28;20300;-30
2023/05/12 13:16:49;;;;;;;8.40;3.67;;;;;;;17.90;63.71;96323.72;10409989;28;20116;-30
2023/05/12 13:21:50;;;;;;;6.85;4.57;;;;;;;17.94;64.40;96320.31;10409022;28;20123;-30
2023/05/12 13:26:50;;;;;;;8.20;3.13;;;;;;;17.92;59.83;96319.47;10409581;28;20052;-30
2023/05/12 13:31:50;;;;;;;5.93;3.23;;;;;;;17.82;58.42;96321.19;10401463;28;20447;-31
2023/05/12 13:36:51;;;;;;;4.15;2.65;;;;;;;17.76;58.34;96321.19;10408287;28;20037;-30
2023/05/12 13:41:51;;;;;;;5.43;3.20;;;;;;;17.75;58.17;96326.28;10409574;28;20408;-31
2023/05/12 13:46:52;;;;;;;3.73;2.43;;;;;;;17.74;58.26;96332.22;10391952;28;20592;-31
2023/05/12 13:51:52;;;;;;;6.00;3.40;;;;;;;17.74;58.44;96332.22;10408106;28;20091;-31
2023/05/12 13:56:53;;;;;;;2.87;2.27;;;;;;;17.73;58.12;96325.47;10408551;28;20091;-32
2023/05/12 14:01:53;;;;;;;7.15;3.35;;;;;;;17.72;58.15;96323.75;10408620;28;20503;-31
2023/05/12 14:06:54;;;;;;;5.90;2.95;;;;;;;17.72;58.28;96323.75;10399522;28;20448;-31
2023/05/12 14:11:54;;;;;;;5.32;2.50;;;;;;;17.71;58.31;96322.94;10400245;28;20432;-30
2023/05/12 14:16:54;;;;;;;5.87;3.13;;;;;;;17.71;58.36;96332.19;10395190;28;20038;-30
2023/05/12 14:21:55;;;;;;;6.60;4.53;;;;;;;17.76;61.62;96333.03;10395800;28;20300;-30
2023/05/12 14:26:56;;;;;;;6.50;4.07;;;;;;;17.88;64.53;96336.38;10399881;28;20034;-31
2023/05/12 14:31:56;;;;;;;4.43;2.47;;;;;;;17.89;60.88;96322.84;10405979;28;20034;-32
2023/05/12 14:36:56;;;;;;;8.75;3.75;;;;;;;17.83;63.14;96322.03;10406631;28;20033;-30
2023/05/12 14:41:58;;;;;;;5.60;3.40;;;;;;;17.64;60.10;96320.41;10407916;28;20029;-30
2023/05/12 14:46:58;;;;;;;7.43;2.78;;;;;;;17.63;58.94;96318.72;10406931;28;20400;-31
2023/05/12 14:51:59;;;;;;;4.07;2.70;;;;;;;17.67;58.72;96328.84;10406924;28;20033;-31
2023/05/12 14:56:59;;;;;;;4.47;2.93;;;;;;;17.66;58.64;96329.69;10398690;28;20320;-31
2023/05/12 15:02:00;;;;;;;3.03;2.30;;;;;;;17.65;58.48;96329.72;10407518;28;20053;-30
2023/05/12 15:07:00;;;;;;;3.83;1.90;;;;;;;17.63;58.71;96324.63;10406598;28;20044;-30
2023/05/12 15:12:02;;;;;;;3.57;2.27;;;;;;;17.62;58.58;96327.16;10407194;28;20057;-31
2023/05/12 15:17:03;;;;;;;3.17;2.60;;;;;;;17.59;59.34;96327.19;10393102;28;20489;-30
2023/05/12 15:22:03;;;;;;;4.18;2.10;;;;;;;17.60;58.86;96321.28;10402455;28;20037;-31
2023/05/12 15:27:04;;;;;;;3.63;2.42;;;;;;;17.60;58.76;96329.72;10400368;28;20022;-30
2023/05/12 15:32:05;;;;;;;5.28;3.20;;;;;;;17.81;63.63;96323.72;10393043;28;20044;-30
2023/05/12 15:37:05;;;;;;;7.00;3.58;;;;;;;17.91;63.39;96326.22;10402235;28;20038;-30
2023/05/12 15:42:06;;;;;;;12.00;2.80;;;;;;;17.79;59.58;96336.41;10397977;28;20041;-32
2023/05/12 15:47:06;;;;;;;3.78;2.25;;;;;;;17.73;58.42;96322.94;10412848;28;20079;-31
2023/05/12 15:52:10;;;;;;;5.63;1.97;;;;;;;17.74;58.34;96329.69;10411884;28;20481;-32
2023/05/12 15:57:12;;;;;;;5.63;2.33;;;;;;;17.73;58.19;96322.94;10412104;28;20100;-30
2023/05/12 16:02:12;;;;;;;3.50;2.20;;;;;;;17.71;58.44;96315.34;10413022;28;20037;-30
2023/05/12 16:07:13;;;;;;;3.00;2.30;;;;;;;17.72;58.25;96323.75;10412142;28;20087;-31
2023/05/12 16:12:14;;;;;;;2.03;1.80;;;;;;;17.71;58.28;96322.06;10412685;28;20033;-31
2023/05/12 16:17:14;;;;;;;3.60;1.88;;;;;;;17.71;58.00;96324.59;10412341;28;20035;-31
2023/05/12 16:22:15;;;;;;;2.93;1.70;;;;;;;17.70;57.98;96321.25;10412338;28;20299;-31
2023/05/12 16:27:15;;;;;;;5.40;2.90;;;;;;;17.83;64.18;96312.75;10398730;28;20029;-30
2023/05/12 16:32:16;;;;;;;4.47;2.23;;;;;;;17.81;64.40;96308.53;10410603;28;20280;-31
2023/05/12 16:37:16;;;;;;;3.85;2.10;;;;;;;17.85;61.80;96307.69;10410427;28;20040;-30
2023/05/12 16:42:16;;;;;;;2.80;1.73;;;;;;;17.80;60.12;96309.38;10402471;28;20087;-31
2023/05/12 16:47:17;;;;;;;7.80;2.77;;;;;;;17.62;62.17;96304.38;10405772;28;20398;-30
2023/05/12 16:52:17;;;;;;;3.53;1.87;;;;;;;17.64;59.64;96305.22;10406374;28;20409;-30
2023/05/12 16:57:18;;;;;;;2.10;1.70;;;;;;;17.69;59.82;96303.53;10397359;28;20580;-31
2023/05/12 17:02:18;;;;;;;7.70;2.10;;;;;;;17.71;59.28;96304.34;10404927;28;20063;-30
2023/05/12 17:07:18;;;;;;;7.28;2.35;;;;;;;17.62;60.68;96301.84;10405053;28;20029;-29
2023/05/12 17:12:19;;;;;;;4.23;2.60;;;;;;;17.71;59.49;96322.06;10400834;28;20556;-30
2023/05/12 17:17:19;;;;;;;6.43;3.83;;;;;;;17.90;62.80;96314.41;10405578;28;20042;-31
2023/05/12 17:22:20;;;;;;;8.57;5.70;;;;;;;17.96;65.49;96321.97;10405176;28;20044;-31
2023/05/12 17:27:20;;;;;;;5.73;3.27;;;;;;;17.93;62.38;96318.63;10405270;28;20420;-30
2023/05/12 17:32:21;;;;;;;6.53;3.57;;;;;;;17.84;61.60;96324.56;10405114;28;20049;-30
2023/05/12 17:37:21;;;;;;;4.70;3.20;;;;;;;17.81;60.71;96329.63;10402841;28;20292;-30
2023/05/12 17:42:21;;;;;;;4.73;3.40;;;;;;;17.77;59.74;96322.06;10383048;28;20048;-30
2023/05/12 17:47:22;;;;;;;32.20;4.85;;;;;;;17.76;60.38;96330.50;10395105;28;20805;-30
2023/05/12 17:52:22;;;;;;;12.63;4.68;;;;;;;17.73;60.11;96325.47;10388140;28;20041;-30
2023/05/12 17:57:23;;;;;;;18.63;5.43;;;;;;;17.73;59.89;96335.59;10389108;28;20053;-30
2023/05/12 18:02:23;;;;;;;17.10;4.83;;;;;;;17.72;59.83;96339.78;10385558;28;20045;-31
2023/05/12 18:07:24;;;;;;;6.60;2.57;;;;;;;17.74;60.09;96342.34;10382948;28;20029;-31
2023/05/12 18:12:24;;;;;;;11.20;5.93;;;;;;;17.85;63.89;96338.94;10395280;28;20287;-31
2023/05/12 18:17:24;;;;;;;11.00;5.13;;;;;;;18.03;62.68;96340.53;10400474;28;20040;-31
2023/05/12 18:22:25;;;;;;;14.85;4.60;;;;;;;18.14;62.29;96346.38;10402064;28;20120;-30
2023/05/12 18:27:25;;;;;;;16.27;4.88;;;;;;;18.15;61.82;96350.63;10403312;28;20041;-33
2023/05/12 18:32:26;;;;;;;13.60;4.43;;;;;;;18.17;61.99;96359.03;10403975;28;20440;-31
2023/05/12 18:37:26;;;;;;;11.40;3.90;;;;;;;18.24;62.07;96363.25;10402813;28;20312;-30
2023/05/12 18:42:27;;;;;;;33.73;5.13;;;;;;;18.29;62.57;96359.88;10401758;28;20049;-31
2023/05/12 18:47:28;;;;;;;11.43;4.40;;;;;;;18.33;62.43;96360.69;10402140;28;20306;-30
2023/05/12 18:52:28;;;;;;;14.90;4.60;;;;;;;18.34;62.39;96368.25;10394336;28;20033;-30
2023/05/12 18:57:28;;;;;;;15.40;5.20;;;;;;;18.37;62.65;96372.47;10404145;28;20053;-30
2023/05/12 19:02:31;;;;;;;13.83;5.20;;;;;;;18.39;63.09;96369.09;10404668;28;20148;-30
2023/05/12 19:07:32;;;;;;;9.43;4.80;;;;;;;18.41;63.20;96375.00;10401482;28;20033;-30
2023/05/12 19:12:32;;;;;;;13.03;5.53;;;;;;;18.50;63.00;96385.06;10399481;28;20037;-31
2023/05/12 19:17:32;;;;;;;11.80;5.88;;;;;;;18.52;63.34;96385.09;10420122;28;20052;-32
2023/05/12 19:22:34;;;;;;;12.13;6.20;;;;;;;18.58;63.42;96390.94;10413807;28;20044;-30
2023/05/12 19:27:34;;;;;;;17.02;6.28;;;;;;;18.57;63.40;96396.88;10412325;28;20056;-30
2023/05/12 19:32:35;;;;;;;15.80;5.13;;;;;;;18.63;64.27;96401.06;10412229;28;20045;-30
2023/05/12 19:37:35;;;;;;;14.02;5.95;;;;;;;18.50;64.56;96404.53;10410052;28;20043;-31
2023/05/12 19:42:36;;;;;;;20.58;7.07;;;;;;;18.50;64.43;96402.81;10409961;28;20033;-30
2023/05/12 19:47:37;;;;;;;14.88;5.00;;;;;;;18.51;64.45;96416.34;10409101;28;20044;-30
2023/05/12 19:52:38;;;;;;;10.57;5.38;;;;;;;18.51;64.57;96416.34;10407859;28;20390;-30
2023/05/12 19:57:38;;;;;;;14.43;6.13;;;;;;;18.56;64.43;96414.63;10405433;28;20512;-31
2023/05/12 20:02:39;;;;;;;17.97;6.00;;;;;;;18.58;64.38;96418.00;10403284;28;20057;-31
2023/05/12 20:07:41;;;;;;;13.73;6.30;;;;;;;18.53;64.58;96420.56;10391591;28;20303;-31
2023/05/12 20:12:42;;;;;;;11.93;5.57;;;;;;;18.58;63.99;96418.84;10399901;28;20033;-30
2023/05/12 20:17:42;;;;;;;15.47;5.30;;;;;;;18.50;64.36;96429.88;10392282;28;20037;-30
2023/05/12 20:22:43;;;;;;;9.73;5.10;;;;;;;18.43;64.12;96434.13;10398160;28;20102;-30
2023/05/12 20:27:44;;;;;;;10.52;4.70;;;;;;;18.38;64.11;96445.13;10410827;28;20037;-30
2023/05/12 20:32:44;;;;;;;8.68;4.95;;;;;;;18.35;64.30;96445.16;10411539;28;20493;-31
2023/05/12 20:37:44;;;;;;;8.10;5.10;;;;;;;18.32;64.50;96446.00;10410294;28;20143;-31
2023/05/12 20:42:46;;;;;;;8.30;5.00;;;;;;;18.30;64.32;96444.31;10411597;28;20287;-30
2023/05/12 20:47:46;;;;;;;10.40;4.88;;;;;;;18.26;64.56;96445.16;10407249;28;20033;-31
2023/05/12 20:52:48;;;;;;;8.07;4.93;;;;;;;18.25;65.16;96451.06;10407562;28;20056;-31
2023/05/12 20:57:49;;;;;;;7.65;4.35;;;;;;;18.26;64.58;96447.69;10409706;28;20493;-30
2023/05/12 21:02:50;;;;;;;7.17;4.10;;;;;;;18.25;64.46;96443.47;10402426;28;20042;-31
2023/05/12 21:07:51;;;;;;;8.30;3.72;;;;;;;18.22;64.86;96443.47;10409270;28;20048;-31
2023/05/12 21:12:51;;;;;;;9.60;3.83;;;;;;;18.21;63.59;96446.84;10405621;28;20041;-30
2023/05/12 21:17:52;;;;;;;7.87;3.80;;;;;;;18.20;64.39;96450.22;10409630;28;20477;-31
2023/05/12 21:22:53;;;;;;;9.37;5.30;;;;;;;18.20;64.41;96452.78;10409073;28;20299;-30
2023/05/12 21:27:54;;;;;;;6.97;4.88;;;;;;;18.19;64.45;96456.16;10407954;28;20493;-31
2023/05/12 21:32:54;;;;;;;6.22;3.85;;;;;;;18.18;64.16;96462.06;10408427;28;20075;-30
2023/05/12 21:37:54;;;;;;;11.27;4.07;;;;;;;18.17;64.64;96455.31;10408502;28;20125;-31
2023/05/12 21:42:57;;;;;;;7.37;4.00;;;;;;;18.15;64.58;96462.09;10407658;28;20310;-30
2023/05/12 21:47:57;;;;;;;7.38;3.75;;;;;;;18.16;65.32;96451.09;10404628;28;20120;-30
2023/05/12 21:52:58;;;;;;;7.93;4.07;;;;;;;18.16;65.18;96461.25;10404657;28;20055;-30
2023/05/12 21:57:58;;;;;;;6.10;3.07;;;;;;;18.16;64.57;96448.56;10408158;28;20041;-30
2023/05/12 22:02:58;;;;;;;4.97;3.27;;;;;;;18.12;63.17;96454.47;10408265;28;20033;-30
2023/05/12 22:07:59;;;;;;;4.53;3.23;;;;;;;18.09;62.44;96457.84;10407584;28;20288;-30
2023/05/12 22:13:00;;;;;;;4.85;2.83;;;;;;;18.08;61.74;96452.81;10399310;28;20037;-30
2023/05/12 22:18:00;;;;;;;5.32;3.25;;;;;;;18.05;61.97;96450.28;10408468;28;20071;-30
2023/05/12 22:23:01;;;;;;;4.85;2.63;;;;;;;18.05;61.78;96455.34;10407170;28;20076;-31
2023/05/12 22:28:01;;;;;;;3.50;2.53;;;;;;;18.03;61.67;96451.97;10413093;28;20044;-31
2023/05/12 22:33:01;;;;;;;5.23;3.13;;;;;;;18.02;61.63;96466.34;10415947;28;20048;-30
2023/05/12 22:38:02;;;;;;;3.13;2.00;;;;;;;18.02;61.58;96478.16;10415171;28;20046;-30
2023/05/12 22:43:02;;;;;;;4.23;3.83;;;;;;;18.05;64.27;96479.00;10415764;28;20317;-30
2023/05/12 22:48:02;;;;;;;5.60;3.60;;;;;;;18.06;65.23;96472.22;10415731;28;20669;-31
2023/05/12 22:53:03;;;;;;;5.90;3.93;;;;;;;18.08;65.33;96473.91;10414982;28;20296;-31
2023/05/12 22:58:03;;;;;;;4.83;3.03;;;;;;;18.09;63.32;96483.19;10415337;28;20307;-30
2023/05/12 23:03:04;;;;;;;3.60;2.23;;;;;;;18.05;61.75;96480.66;10414708;28;20036;-30
2023/05/12 23:08:04;;;;;;;3.35;2.38;;;;;;;18.06;61.65;96479.81;10414072;28;20033;-31
2023/05/12 23:13:05;;;;;;;3.23;2.40;;;;;;;18.08;63.61;96485.75;10414227;28;20038;-31
2023/05/12 23:18:05;;;;;;;4.32;2.72;;;;;;;18.09;63.39;96484.91;10414503;28;20379;-30